Airfield :
LOGIN :

Register | Disclaimer

   EN    FR    IT 

 










Legend :    VFR   Marginal VFR   IFR   Intensive IFR   Very Intensive IFR
Visi :
Ceiling :
>= 8 km
>= 3000ft
5 to 8 km
1000 to 3000 ft
1500m to 5 km
500 to 1000 ft
800 to 1500m
200 to 500 ft
< 800m
< 200 ft
Symbols :   Thunderstorms  Fog  Heavy snow  Heavy precipitations  Wind > 20 kt
SIGMETs :     Misc.  Thunderstorms  Icing  Turbulence  Mountain Waves  Volcanic Ashes







- Airport Elevation : 681 ft
- IATA code : LBA
- Download approach charts


EGNM - Leeds Bradford

CURRENT METAR :
  • 191350Z 25023G36KT 220V280 9999 FEW024 16/08 Q1002

EXPIRED METARs :
  • 191320Z 24029G45KT 190V270 9999 -SHRA SCT017 SCT024 17/10 Q1001
  • 191250Z 23018G31KT 190V300 9999 -SHRA SCT017 SCT024 17/13 Q1000
  • 191220Z 22019G36KT 180V270 9999 -SHRA FEW022 BKN028 18/12 Q1000
  • 191150Z 22016G30KT 180V270 9999 -SHRA BKN028 18/11 Q0999
  • 191120Z 21022G36KT 150V250 9999 -SHRA SCT031 SCT038 17/11 Q1000

TAF TAF EGNM
Valid from the 19 at 12:00 until the 20 at 12:00 UTC


191105Z 1912/2012 21020G30KT 9999 SCT030
TEMPO 1912/1914 22025G42KT 6000 SHRA BKN010
BECMG 1913/1916 25020G32KT
PROB40
TEMPO 1914/1918 26028G44KT
BECMG 1918/1921 22018G28KT
BECMG 1921/1924 21015KT
BECMG 2000/2003 18005KT
PROB30
TEMPO 2003/2009 8000 -RA BKN007
BECMG 2009/2012 8000 -RA BKN007
PROB30
TEMPO 2009/2012 3000 RA BR BKN004
ATIS : +44 113 250 9696 (x2489)
No reported NOTAMs for that airfield.
4 SIGMETs reported for the London FIR (EGTT) :
 
Severe mountain waves
EGTT SIGMET 11 VALID 191300/191700 EGRR
EGTT LONDON FIR SEV MTW FCST WI N5311 E00322 - N5143 E00210 - N4947 W00545 - N5139 W00647 - N5220 W00530 - N5500 W00530 - N5500 W00100 - N5311 E00322 FL030/250 STNR NC=
Severe turbulence
EGTT SIGMET 10 VALID 191300/191700 EGRR
EGTT LONDON FIR SEV TURB FCST N OF N4958 AND E OF W00534 SFC/FL060 MOV ENE 40KT WKN=
SIGMET 08 cancelation
EGTT SIGMET 09 VALID 191245/191632 EGRR
EGTT LONDON FIR CNL SIGMET 08 191232/191632=
SIGMET 08  CANCELED :
Severe turbulence
EGTT SIGMET 08 VALID 191232/191632 EGRR
EGTT LONDON FIR SEV TURB FCST N OF N4955 AND E OF W00546 SFC/FL060 MOV ENE 40KT WKN=



MET'MAP, your aeronautical weather chart ! - Copyright ORBIFLY December 2007 - Disclaimer

ORBIFLY MET'MAP TEAM :

Programming & Development : Alexandra Zaïnal
Concept & Development : Baudouin d'Aumeries
Co-Development & Prog : Marc-Olivier Méhu
Technical & hardware support : Manuel Goepfert

Contact : metmap@orbifly.com




SOURCES & CREDITS :

   NOAA